Terminal Aerodrome Forecast
Issued by NWS Wilmington, NC

Current Version | Previous Version | Text Only | Print | Product List | Glossary On
Versions: 1 2 3 4 5 6 7 8 9 10 11 12 13 14
000
FTUS42 KILM 290530
TAFLBT
TAF
KLBT 290530Z 2906/3006 17004KT P6SM VCTS SCT040CB BKN090
     FM290900 VRB10KT 5SM SHRA VCTS BKN030CB
     FM291100 16003KT 5SM BR SCT030
     FM291400 18006KT P6SM SCT090
     FM291600 16006KT P6SM VCTS SCT030CB
     FM300000 16003KT P6SM FEW030=

USA.gov is the U.S. government's official web portal to all federal, state and local government web resources and services.